createdAt,value
2018-01-30T00:01:19.255Z,88.22
2018-01-30T00:03:47.528Z,86.69
2018-01-30T00:06:15.813Z,86.76
2018-01-30T00:08:44.092Z,86.36
2018-01-30T00:11:13.134Z,85.67
2018-01-30T00:13:41.402Z,85.84
2018-01-30T00:16:09.682Z,85.00
2018-01-30T00:18:38.712Z,85.54
2018-01-30T00:21:06.989Z,86.28
2018-01-30T00:23:35.281Z,85.50
2018-01-30T00:26:03.597Z,86.26
2018-01-30T00:28:31.880Z,86.61
2018-01-30T00:31:07.408Z,84.82
2018-01-30T00:33:36.608Z,84.91
2018-01-30T00:36:04.878Z,85.64
2018-01-30T00:38:33.911Z,86.13
2018-01-30T00:41:02.180Z,84.35
2018-01-30T00:43:31.233Z,83.17
2018-01-30T00:45:59.484Z,84.78
2018-01-30T00:48:27.764Z,85.25
2018-01-30T00:50:56.038Z,84.28
2018-01-30T00:53:24.311Z,82.59
2018-01-30T00:55:52.589Z,83.93
2018-01-30T00:58:20.860Z,85.58
2018-01-30T01:00:49.132Z,88.01
2018-01-30T01:03:17.408Z,87.56
2018-01-30T01:05:45.660Z,86.98
2018-01-30T01:08:13.931Z,89.07
2018-01-30T01:10:42.209Z,88.68
2018-01-30T01:13:11.405Z,88.68
2018-01-30T01:15:39.661Z,89.49
2018-01-30T01:18:08.715Z,88.95
2018-01-30T01:20:36.979Z,88.11
2018-01-30T01:23:26.837Z,88.41
2018-01-30T01:25:55.108Z,86.76
2018-01-30T01:28:23.396Z,85.39
2018-01-30T01:30:51.652Z,85.03
2018-01-30T01:33:27.154Z,84.02
2018-01-30T01:35:59.378Z,84.30
2018-01-30T01:38:49.214Z,85.19
2018-01-30T01:41:17.500Z,85.70
2018-01-30T01:43:45.783Z,86.01
2018-01-30T01:46:14.048Z,85.25
2018-01-30T01:48:42.324Z,86.52
2018-01-30T01:51:10.584Z,88.43
2018-01-30T01:53:38.864Z,85.50
2018-01-30T01:56:07.132Z,86.76
2018-01-30T01:58:35.412Z,86.38
2018-01-30T02:01:04.588Z,86.79
2018-01-30T02:03:34.829Z,86.06
2018-01-30T02:06:03.091Z,85.06
2018-01-30T02:08:32.142Z,86.50
2018-01-30T02:11:00.409Z,85.38
2018-01-30T02:13:28.693Z,86.55
2018-01-30T02:16:13.481Z,85.01
2018-01-30T02:18:41.770Z,86.22
2018-01-30T02:21:10.016Z,86.09
2018-01-30T02:23:49.468Z,84.83
2018-01-30T02:26:19.745Z,84.66
2018-01-30T02:28:48.022Z,84.81
2018-01-30T02:31:17.044Z,84.82
2018-01-30T02:33:45.326Z,83.54
2018-01-30T02:36:13.591Z,84.11
2018-01-30T02:38:42.643Z,82.99
2018-01-30T02:41:10.916Z,81.16
2018-01-30T02:43:39.188Z,84.60
2018-01-30T02:46:22.651Z,85.15
2018-01-30T02:48:50.924Z,84.72
2018-01-30T02:51:19.198Z,85.19
2018-01-30T02:53:48.240Z,83.27
2018-01-30T02:56:16.512Z,83.32
2018-01-30T02:58:51.120Z,83.96
2018-01-30T03:01:20.161Z,82.86
2018-01-30T03:03:49.362Z,81.96
2018-01-30T03:06:18.589Z,81.72
2018-01-30T03:08:47.620Z,80.75
2018-01-30T03:11:15.906Z,79.94
2018-01-30T03:14:02.300Z,82.28
2018-01-30T03:16:30.599Z,81.94
2018-01-30T03:18:58.872Z,83.68
2018-01-30T03:21:27.170Z,84.15
2018-01-30T03:23:55.456Z,81.86
2018-01-30T03:26:23.744Z,82.67
2018-01-30T03:28:52.019Z,82.39
2018-01-30T03:34:25.253Z,81.45
2018-01-30T03:37:00.995Z,80.34
2018-01-30T03:39:30.033Z,79.90
2018-01-30T03:41:58.314Z,79.89
2018-01-30T03:44:26.590Z,78.74
2018-01-30T03:47:08.443Z,79.87
2018-01-30T03:50:00.493Z,80.28
2018-01-30T03:52:28.773Z,81.64
2018-01-30T03:55:27.072Z,79.88
2018-01-30T03:57:55.356Z,79.42
2018-01-30T04:03:38.437Z,77.94
2018-01-30T04:06:09.773Z,77.67
2018-01-30T04:08:38.039Z,77.41
2018-01-30T04:11:06.340Z,76.94
2018-01-30T04:13:34.604Z,78.14
2018-01-30T04:16:03.654Z,77.67
2018-01-30T04:18:32.698Z,78.39
2018-01-30T04:21:00.976Z,79.33
2018-01-30T04:23:31.168Z,79.30
2018-01-30T04:26:16.985Z,79.57
2018-01-30T04:28:46.488Z,79.27
2018-01-30T04:31:19.070Z,79.64
2018-01-30T04:33:49.337Z,80.72
2018-01-30T04:39:33.216Z,81.72
2018-01-30T04:45:06.940Z,80.76
2018-01-30T04:47:35.228Z,80.10
2018-01-30T04:50:11.784Z,78.65
2018-01-30T04:52:40.839Z,78.67
2018-01-30T04:55:09.121Z,79.45
2018-01-30T05:00:41.260Z,80.11
2018-01-30T05:03:16.554Z,79.32
2018-01-30T05:11:45.976Z,78.99
2018-01-30T05:14:14.251Z,80.23
2018-01-30T05:17:08.573Z,80.71
2018-01-30T05:19:36.868Z,81.95
2018-01-30T05:22:05.177Z,80.73
2018-01-30T05:24:37.918Z,79.67
2018-01-30T05:27:07.132Z,80.16
2018-01-30T05:29:35.408Z,80.26
2018-01-30T05:38:05.612Z,80.64
2018-01-30T05:40:33.903Z,80.23
2018-01-30T05:43:02.180Z,79.13
2018-01-30T05:45:31.221Z,79.80
2018-01-30T05:47:59.491Z,80.60
2018-01-30T05:50:27.786Z,82.53
2018-01-30T05:52:56.075Z,81.98
2018-01-30T05:55:30.628Z,80.99
2018-01-30T05:57:58.913Z,81.43
2018-01-30T06:00:53.250Z,80.43
2018-01-30T06:03:21.512Z,80.71
2018-01-30T06:05:49.793Z,80.73
2018-01-30T06:08:24.283Z,80.14
2018-01-30T06:10:53.349Z,79.65
2018-01-30T06:13:21.670Z,80.24
2018-01-30T06:15:49.917Z,80.12
2018-01-30T06:18:18.206Z,79.99
2018-01-30T06:20:46.494Z,79.73
2018-01-30T06:23:14.785Z,79.78
2018-01-30T06:25:49.221Z,79.20
2018-01-30T06:28:39.469Z,78.90
2018-01-30T06:34:13.697Z,81.00
2018-01-30T06:36:41.979Z,81.45
2018-01-30T06:39:10.294Z,81.38
2018-01-30T06:41:38.563Z,82.83
2018-01-30T06:44:06.828Z,81.15
2018-01-30T06:46:35.114Z,81.55
2018-01-30T06:49:03.388Z,81.28
2018-01-30T06:51:31.682Z,81.95
2018-01-30T06:53:59.951Z,81.93
2018-01-30T06:56:37.056Z,81.30
2018-01-30T06:59:06.098Z,82.14
2018-01-30T07:01:41.850Z,82.69
2018-01-30T07:04:10.116Z,82.94
2018-01-30T07:06:39.168Z,82.21
2018-01-30T07:09:07.441Z,82.15
2018-01-30T07:11:35.733Z,82.09
2018-01-30T07:14:11.344Z,81.39
2018-01-30T07:16:40.585Z,82.23
2018-01-30T07:19:08.860Z,84.29
2018-01-30T07:21:37.908Z,83.21
2018-01-30T07:24:06.189Z,82.95
2018-01-30T07:26:34.481Z,81.76
2018-01-30T07:29:02.756Z,81.31
2018-01-30T07:31:31.948Z,80.33
2018-01-30T07:34:00.216Z,80.87
2018-01-30T07:36:28.489Z,82.50
2018-01-30T07:38:56.768Z,81.91
2018-01-30T07:41:25.055Z,79.80
2018-01-30T07:43:53.324Z,79.42
2018-01-30T07:46:21.617Z,79.81
2018-01-30T07:48:49.893Z,79.99
2018-01-30T07:51:18.164Z,78.72
2018-01-30T07:53:46.454Z,78.84
2018-01-30T07:56:14.724Z,80.65
2018-01-30T07:58:43.777Z,80.41
2018-01-30T08:01:12.040Z,80.47
2018-01-30T08:03:40.330Z,79.04
2018-01-30T08:06:08.595Z,78.65
2018-01-30T08:08:37.656Z,77.98
2018-01-30T08:11:05.932Z,78.17
2018-01-30T08:13:34.225Z,77.82
2018-01-30T08:16:02.501Z,77.82
2018-01-30T08:18:30.781Z,79.18
2018-01-30T08:20:59.052Z,80.58
2018-01-30T08:23:27.343Z,78.78
2018-01-30T08:25:55.620Z,78.23
2018-01-30T08:28:24.658Z,78.25
2018-01-30T08:30:52.923Z,78.45
2018-01-30T08:33:21.209Z,78.90
2018-01-30T08:35:49.489Z,79.55
2018-01-30T08:38:18.535Z,79.37
2018-01-30T08:40:47.346Z,77.64
2018-01-30T08:43:16.340Z,78.43
2018-01-30T08:45:44.609Z,77.69
2018-01-30T08:48:12.892Z,77.02
2018-01-30T08:50:41.164Z,77.28
2018-01-30T08:53:10.218Z,77.54
2018-01-30T08:55:38.493Z,77.74
2018-01-30T08:58:06.785Z,79.33
2018-01-30T09:00:35.057Z,78.70
2018-01-30T09:03:03.332Z,78.68
2018-01-30T09:05:32.381Z,77.68
2018-01-30T09:08:00.657Z,78.59
2018-01-30T09:10:28.958Z,78.87
2018-01-30T09:13:00.032Z,78.67
2018-01-30T09:15:28.345Z,78.31
2018-01-30T09:17:56.605Z,79.47
2018-01-30T09:20:28.016Z,80.27
2018-01-30T09:22:56.302Z,79.67
2018-01-30T09:25:25.344Z,79.07
2018-01-30T09:27:53.607Z,78.17
2018-01-30T09:30:21.884Z,79.50
2018-01-30T09:32:50.160Z,80.55
2018-01-30T09:35:19.216Z,80.97
2018-01-30T09:37:47.496Z,80.54
2018-01-30T09:40:16.557Z,80.99
2018-01-30T09:42:44.836Z,81.88
2018-01-30T09:45:13.133Z,82.38
2018-01-30T09:47:41.409Z,82.93
2018-01-30T09:50:09.700Z,80.89
2018-01-30T09:52:37.963Z,82.58
2018-01-30T09:55:06.276Z,82.42
2018-01-30T09:57:34.553Z,80.97
2018-01-30T10:00:02.956Z,79.64
2018-01-30T10:02:31.217Z,78.90
2018-01-30T10:04:59.508Z,81.05
2018-01-30T10:07:27.776Z,81.01
2018-01-30T10:09:56.047Z,80.86
2018-01-30T10:12:24.313Z,78.32
2018-01-30T10:14:53.349Z,77.62
2018-01-30T10:17:21.625Z,77.71
2018-01-30T10:19:50.688Z,78.29
2018-01-30T10:22:18.956Z,78.49
2018-01-30T10:24:47.227Z,79.62
2018-01-30T10:27:15.500Z,77.21
2018-01-30T10:29:43.777Z,79.03
2018-01-30T10:32:12.818Z,79.39
2018-01-30T10:34:41.093Z,79.52
2018-01-30T10:37:09.362Z,77.64
2018-01-30T10:39:38.409Z,78.70
2018-01-30T10:42:06.668Z,77.59
2018-01-30T10:44:35.721Z,76.20
2018-01-30T10:47:03.980Z,75.60
2018-01-30T10:49:32.258Z,75.58
2018-01-30T10:52:00.527Z,76.03
2018-01-30T10:54:29.603Z,75.17
2018-01-30T10:56:57.868Z,75.45
2018-01-30T10:59:26.160Z,74.61
2018-01-30T11:01:54.412Z,75.92
2018-01-30T11:04:22.709Z,74.73
2018-01-30T11:06:51.804Z,74.18
2018-01-30T11:09:20.835Z,75.51
2018-01-30T11:11:49.110Z,74.41
2018-01-30T11:14:17.372Z,74.30
2018-01-30T11:16:46.432Z,75.01
2018-01-30T11:19:14.705Z,74.38
2018-01-30T11:21:42.993Z,74.78
2018-01-30T11:24:11.284Z,75.02
2018-01-30T11:26:39.556Z,75.55
2018-01-30T11:29:07.825Z,74.65
2018-01-30T11:31:36.862Z,74.05
2018-01-30T11:34:05.164Z,73.87
2018-01-30T11:36:33.444Z,72.88
2018-01-30T11:39:01.722Z,74.96
2018-01-30T11:41:29.983Z,73.44
2018-01-30T11:43:59.015Z,74.26
2018-01-30T11:46:27.301Z,71.71
2018-01-30T11:48:55.580Z,70.73
2018-01-30T11:51:24.620Z,70.47
2018-01-30T11:53:52.883Z,72.11
2018-01-30T11:56:21.163Z,71.72
2018-01-30T11:58:49.428Z,73.63
2018-01-30T12:01:17.700Z,72.95
2018-01-30T12:03:45.964Z,73.16
2018-01-30T12:06:14.246Z,75.32
2018-01-30T12:08:45.507Z,74.22
2018-01-30T12:11:13.792Z,74.79
2018-01-30T12:13:42.065Z,72.02
2018-01-30T12:16:10.345Z,73.99
2018-01-30T12:18:38.599Z,74.22
2018-01-30T12:21:06.881Z,72.58
2018-01-30T12:23:35.153Z,72.89
2018-01-30T12:26:03.433Z,72.93
2018-01-30T12:28:31.700Z,72.27
2018-01-30T12:30:59.963Z,71.38
2018-01-30T12:33:29.055Z,70.34
2018-01-30T12:35:57.296Z,69.94
2018-01-30T12:38:25.567Z,69.97
2018-01-30T12:40:53.857Z,70.88
2018-01-30T12:43:22.123Z,69.84
2018-01-30T12:45:51.168Z,69.68
2018-01-30T12:48:20.204Z,68.22
2018-01-30T12:50:48.484Z,67.32
2018-01-30T12:53:16.757Z,67.07
2018-01-30T12:55:45.035Z,67.05
2018-01-30T12:58:13.309Z,66.68
2018-01-30T13:00:41.575Z,66.80
2018-01-30T13:03:10.611Z,69.94
2018-01-30T13:05:38.888Z,70.18
2018-01-30T13:08:07.169Z,70.89
2018-01-30T13:10:35.440Z,70.81
2018-01-30T13:13:04.476Z,70.12
2018-01-30T13:15:32.754Z,71.35
2018-01-30T13:18:01.026Z,71.88
2018-01-30T13:20:30.189Z,69.53
2018-01-30T13:22:58.447Z,72.66
2018-01-30T13:25:26.736Z,72.30
2018-01-30T13:27:55.029Z,71.32
2018-01-30T13:30:23.305Z,70.19
2018-01-30T13:32:51.572Z,72.11
2018-01-30T13:35:23.560Z,71.03
2018-01-30T13:37:52.583Z,67.95
2018-01-30T13:40:20.877Z,68.38
2018-01-30T13:42:49.148Z,68.49
2018-01-30T13:45:17.455Z,68.94
2018-01-30T13:47:46.496Z,67.43
2018-01-30T13:50:14.866Z,69.73
2018-01-30T13:52:43.156Z,71.61
2018-01-30T13:55:11.446Z,71.68
2018-01-30T13:57:39.735Z,70.27
2018-01-30T14:00:08.047Z,70.07
2018-01-30T14:02:36.328Z,71.65
2018-01-30T14:05:04.584Z,70.84
2018-01-30T14:07:32.890Z,71.63
2018-01-30T14:10:01.177Z,71.05
2018-01-30T14:12:29.464Z,68.40
2018-01-30T14:14:57.753Z,68.45
2018-01-30T14:17:26.044Z,69.76
2018-01-30T14:19:54.343Z,66.95
2018-01-30T14:22:22.636Z,69.13
2018-01-30T14:24:50.913Z,68.78
2018-01-30T14:27:19.231Z,67.48
2018-01-30T14:29:47.559Z,68.38
2018-01-30T14:32:15.848Z,68.97
2018-01-30T14:34:44.868Z,68.67
2018-01-30T14:37:13.162Z,69.28
2018-01-30T14:39:42.244Z,68.22
2018-01-30T14:42:10.556Z,68.45
2018-01-30T14:44:38.820Z,66.54
2018-01-30T14:47:07.108Z,65.77
2018-01-30T14:49:36.152Z,66.38
2018-01-30T14:52:04.469Z,66.01
2018-01-30T14:54:32.750Z,65.59
2018-01-30T14:57:01.041Z,65.43
2018-01-30T14:59:29.386Z,66.50
2018-01-30T15:01:57.680Z,66.32
2018-01-30T15:04:25.990Z,66.04
2018-01-30T15:06:54.331Z,67.62
2018-01-30T15:09:23.365Z,67.98
2018-01-30T15:11:51.673Z,67.43
2018-01-30T15:14:19.943Z,67.71
2018-01-30T15:16:48.215Z,67.18
2018-01-30T15:19:17.274Z,67.31
2018-01-30T15:21:45.595Z,67.62
2018-01-30T15:24:14.648Z,67.35
2018-01-30T15:26:42.932Z,66.95
2018-01-30T15:29:11.208Z,65.97
2018-01-30T15:31:39.494Z,66.15
2018-01-30T15:34:07.764Z,65.60
2018-01-30T15:36:37.865Z,65.12
2018-01-30T15:39:06.182Z,64.95
2018-01-30T15:41:34.493Z,64.15
2018-01-30T15:44:03.604Z,64.16
2018-01-30T15:46:31.906Z,63.93
2018-01-30T15:49:00.215Z,64.08
2018-01-30T15:51:28.510Z,63.88
2018-01-30T15:53:56.820Z,64.04
2018-01-30T15:56:25.925Z,64.47
2018-01-30T15:58:54.207Z,64.51
2018-01-30T16:01:22.505Z,64.41
2018-01-30T16:03:50.780Z,64.93
2018-01-30T16:06:19.075Z,65.23
2018-01-30T16:08:47.374Z,65.10
2018-01-30T16:11:15.671Z,65.18
2018-01-30T16:13:44.723Z,65.22
2018-01-30T16:16:13.280Z,65.84
2018-01-30T16:18:42.336Z,66.63
2018-01-30T16:21:10.636Z,66.85
2018-01-30T16:23:38.908Z,67.02
2018-01-30T16:26:07.256Z,68.35
2018-01-30T16:28:35.561Z,70.23
2018-01-30T16:31:30.680Z,71.17
2018-01-30T16:33:58.954Z,71.66
2018-01-30T16:36:44.353Z,73.37
2018-01-30T16:39:27.218Z,75.15
2018-01-30T16:42:25.216Z,75.49
2018-01-30T16:44:53.502Z,76.11
2018-01-30T16:47:38.481Z,76.81
2018-01-30T16:50:06.781Z,75.87
2018-01-30T16:52:35.085Z,75.40
2018-01-30T16:55:04.133Z,75.23
2018-01-30T16:57:32.417Z,75.85
2018-01-30T17:00:00.680Z,75.76
2018-01-30T17:02:29.724Z,75.41
2018-01-30T17:04:57.994Z,76.35
2018-01-30T17:07:26.301Z,75.41
2018-01-30T17:09:54.574Z,74.91
2018-01-30T17:12:44.605Z,74.54
2018-01-30T17:15:12.945Z,74.46
2018-01-30T17:17:43.925Z,74.92
2018-01-30T17:20:12.210Z,75.40
2018-01-30T17:22:40.484Z,75.03
2018-01-30T17:25:08.775Z,74.51
2018-01-30T17:27:37.057Z,73.36
2018-01-30T17:30:06.088Z,73.62
2018-01-30T17:32:34.405Z,73.96
2018-01-30T17:35:02.716Z,74.67
2018-01-30T17:37:30.993Z,75.00
2018-01-30T17:39:59.271Z,74.73
2018-01-30T17:42:46.096Z,73.57
2018-01-30T17:45:26.937Z,73.80
2018-01-30T17:47:55.246Z,74.51
2018-01-30T17:50:23.748Z,73.56
2018-01-30T17:52:52.972Z,73.65
2018-01-30T17:55:21.248Z,73.24
2018-01-30T17:57:49.532Z,72.20
2018-01-30T18:00:17.818Z,71.42
2018-01-30T18:02:46.116Z,70.92
2018-01-30T18:05:14.400Z,70.03
2018-01-30T18:08:15.114Z,69.52
2018-01-30T18:10:44.168Z,69.77
2018-01-30T18:13:12.498Z,69.42
2018-01-30T18:15:54.682Z,68.88
2018-01-30T18:18:32.638Z,68.84
2018-01-30T18:21:01.685Z,68.71
2018-01-30T18:23:29.972Z,68.33
2018-01-30T18:25:58.251Z,68.31
2018-01-30T18:28:26.549Z,69.75
2018-01-30T18:30:54.828Z,73.72
2018-01-30T18:33:23.113Z,75.14
2018-01-30T18:35:51.394Z,75.98
2018-01-30T18:38:19.696Z,76.78
2018-01-30T18:40:47.997Z,76.47
2018-01-30T18:43:16.278Z,76.64
2018-01-30T18:45:44.551Z,75.80
2018-01-30T18:48:12.828Z,75.27
2018-01-30T18:50:41.103Z,74.45
2018-01-30T18:53:10.145Z,74.32
2018-01-30T18:55:38.416Z,74.48
2018-01-30T18:58:06.703Z,73.59
2018-01-30T19:00:34.985Z,72.98
2018-01-30T19:03:04.024Z,73.42
2018-01-30T19:05:32.300Z,74.01
2018-01-30T19:08:00.585Z,74.20
2018-01-30T19:10:29.628Z,74.86
2018-01-30T19:12:57.913Z,75.61
2018-01-30T19:15:26.180Z,77.22
2018-01-30T19:17:54.457Z,77.43
2018-01-30T19:20:22.818Z,76.71
2018-01-30T19:22:51.091Z,77.32
2018-01-30T19:25:19.372Z,78.22
2018-01-30T19:27:47.644Z,77.71
2018-01-30T19:30:17.899Z,76.81
2018-01-30T19:32:46.176Z,78.62
2018-01-30T19:35:24.176Z,78.91
2018-01-30T19:37:52.440Z,77.65
2018-01-30T19:40:20.721Z,76.36
2018-01-30T19:42:50.960Z,76.74
2018-01-30T19:45:25.890Z,75.86
2018-01-30T19:47:58.052Z,74.56
2018-01-30T19:50:32.800Z,75.20
2018-01-30T19:53:01.834Z,74.15
2018-01-30T19:55:30.109Z,72.35
2018-01-30T19:58:02.212Z,71.42
2018-01-30T20:00:54.263Z,70.37
2018-01-30T20:03:22.535Z,69.66
2018-01-30T20:05:50.826Z,69.07
2018-01-30T20:08:40.729Z,68.59
2018-01-30T20:11:19.345Z,68.59
2018-01-30T20:13:47.616Z,68.55
2018-01-30T20:16:17.581Z,68.65
2018-01-30T20:18:45.854Z,68.98
2018-01-30T20:21:14.148Z,69.55
2018-01-30T20:23:42.430Z,69.67
2018-01-30T20:26:10.712Z,70.16
2018-01-30T20:28:38.995Z,70.62
2018-01-30T20:31:07.285Z,71.28
2018-01-30T20:33:36.336Z,73.59
2018-01-30T20:36:09.678Z,73.27
2018-01-30T20:38:37.972Z,74.01
2018-01-30T20:41:07.004Z,73.86
2018-01-30T20:43:35.296Z,74.29
2018-01-30T20:46:03.570Z,73.65
2018-01-30T20:48:32.616Z,73.82
2018-01-30T20:51:00.889Z,75.08
2018-01-30T20:53:29.171Z,75.04
2018-01-30T20:56:27.448Z,77.05
2018-01-30T20:58:56.524Z,78.51
2018-01-30T21:01:24.777Z,78.66
2018-01-30T21:04:24.036Z,79.21
2018-01-30T21:06:52.311Z,79.00
2018-01-30T21:09:20.589Z,79.29
2018-01-30T21:11:48.861Z,79.75
2018-01-30T21:14:37.661Z,77.81
2018-01-30T21:17:05.938Z,77.88
2018-01-30T21:19:34.257Z,78.29
2018-01-30T21:22:02.528Z,77.56
2018-01-30T21:24:30.811Z,76.37
2018-01-30T21:30:01.338Z,76.85
2018-01-30T21:32:29.600Z,77.17
2018-01-30T21:34:58.640Z,77.96
2018-01-30T21:37:44.047Z,78.19
2018-01-30T21:40:25.348Z,78.53
2018-01-30T21:42:53.609Z,78.20
2018-01-30T21:45:32.212Z,78.82
2018-01-30T21:48:01.243Z,79.83
2018-01-30T21:50:40.260Z,79.43
2018-01-30T21:53:09.304Z,78.50
2018-01-30T21:55:50.832Z,77.41
2018-01-30T21:58:32.010Z,77.20
2018-01-30T22:01:13.813Z,77.04
2018-01-30T22:04:12.729Z,77.50
2018-01-30T22:06:40.989Z,77.06
2018-01-30T22:09:09.270Z,77.13
2018-01-30T22:11:49.632Z,75.92
2018-01-30T22:14:20.635Z,75.30
2018-01-30T22:16:48.919Z,74.04
2018-01-30T22:19:17.183Z,72.91
2018-01-30T22:21:45.473Z,72.06
2018-01-30T22:24:21.928Z,71.42
2018-01-30T22:26:50.192Z,72.36
2018-01-30T22:32:39.485Z,72.56
2018-01-30T22:35:08.580Z,73.32
2018-01-30T22:37:40.935Z,73.77
2018-01-30T22:40:13.979Z,75.07
2018-01-30T22:42:42.243Z,75.50
2018-01-30T22:45:10.544Z,76.51
